sensor_id;sensor_type;location;lat;lon;timestamp;P1;durP1;ratioP1;P2;durP2;ratioP2
34737;SDS011;39910;47.154;27.614;2024-02-04T00:01:59;10.20;;;9.70;;
34737;SDS011;39910;47.154;27.614;2024-02-04T00:04:25;9.90;;;9.50;;
34737;SDS011;39910;47.154;27.614;2024-02-04T00:06:50;10.23;;;9.73;;
34737;SDS011;39910;47.154;27.614;2024-02-04T00:09:16;10.20;;;9.70;;
34737;SDS011;39910;47.154;27.614;2024-02-04T00:11:41;10.40;;;9.90;;
34737;SDS011;39910;47.154;27.614;2024-02-04T00:14:06;10.10;;;9.70;;
34737;SDS011;39910;47.154;27.614;2024-02-04T00:16:32;10.00;;;9.60;;
34737;SDS011;39910;47.154;27.614;2024-02-04T00:18:58;10.30;;;9.80;;
34737;SDS011;39910;47.154;27.614;2024-02-04T00:21:23;10.55;;;10.05;;
34737;SDS011;39910;47.154;27.614;2024-02-04T00:23:48;10.60;;;10.10;;
34737;SDS011;39910;47.154;27.614;2024-02-04T00:26:14;10.18;;;9.73;;
34737;SDS011;39910;47.154;27.614;2024-02-04T00:28:39;10.25;;;9.75;;
34737;SDS011;39910;47.154;27.614;2024-02-04T00:31:08;10.05;;;9.65;;
34737;SDS011;39910;47.154;27.614;2024-02-04T00:33:33;10.63;;;10.13;;
34737;SDS011;39910;47.154;27.614;2024-02-04T00:35:58;10.57;;;10.07;;
34737;SDS011;39910;47.154;27.614;2024-02-04T00:38:24;10.10;;;9.70;;
34737;SDS011;39910;47.154;27.614;2024-02-04T00:40:49;10.40;;;9.90;;
34737;SDS011;39910;47.154;27.614;2024-02-04T00:43:14;10.10;;;9.68;;
34737;SDS011;39910;47.154;27.614;2024-02-04T00:45:40;10.55;;;10.05;;
34737;SDS011;39910;47.154;27.614;2024-02-04T00:48:05;10.30;;;9.80;;
34737;SDS011;39910;47.154;27.614;2024-02-04T00:50:30;10.45;;;9.95;;
34737;SDS011;39910;47.154;27.614;2024-02-04T00:52:56;10.20;;;9.75;;
34737;SDS011;39910;47.154;27.614;2024-02-04T00:55:21;10.43;;;9.93;;
34737;SDS011;39910;47.154;27.614;2024-02-04T00:57:46;10.60;;;10.10;;
34737;SDS011;39910;47.154;27.614;2024-02-04T01:00:12;10.70;;;10.20;;
34737;SDS011;39910;47.154;27.614;2024-02-04T01:02:40;10.23;;;9.73;;
34737;SDS011;39910;47.154;27.614;2024-02-04T01:05:05;10.40;;;9.90;;
34737;SDS011;39910;47.154;27.614;2024-02-04T01:07:31;9.80;;;9.40;;
34737;SDS011;39910;47.154;27.614;2024-02-04T01:09:56;10.40;;;9.90;;
34737;SDS011;39910;47.154;27.614;2024-02-04T01:12:22;10.10;;;9.68;;
34737;SDS011;39910;47.154;27.614;2024-02-04T01:14:47;10.20;;;9.70;;
34737;SDS011;39910;47.154;27.614;2024-02-04T01:17:12;9.88;;;9.48;;
34737;SDS011;39910;47.154;27.614;2024-02-04T01:19:38;10.00;;;9.60;;
34737;SDS011;39910;47.154;27.614;2024-02-04T01:22:03;10.30;;;9.80;;
34737;SDS011;39910;47.154;27.614;2024-02-04T01:24:30;9.98;;;9.57;;
34737;SDS011;39910;47.154;27.614;2024-02-04T01:26:56;10.00;;;9.60;;
34737;SDS011;39910;47.154;27.614;2024-02-04T01:29:22;9.80;;;9.40;;
34737;SDS011;39910;47.154;27.614;2024-02-04T01:31:47;10.20;;;9.70;;
34737;SDS011;39910;47.154;27.614;2024-02-04T01:34:12;10.35;;;9.85;;
34737;SDS011;39910;47.154;27.614;2024-02-04T01:36:38;10.55;;;10.05;;
34737;SDS011;39910;47.154;27.614;2024-02-04T01:39:03;10.00;;;9.60;;
34737;SDS011;39910;47.154;27.614;2024-02-04T01:41:29;9.90;;;9.50;;
34737;SDS011;39910;47.154;27.614;2024-02-04T01:43:55;10.30;;;9.80;;
34737;SDS011;39910;47.154;27.614;2024-02-04T01:46:20;9.90;;;9.50;;
34737;SDS011;39910;47.154;27.614;2024-02-04T01:48:46;10.60;;;10.10;;
34737;SDS011;39910;47.154;27.614;2024-02-04T01:51:11;10.50;;;10.00;;
34737;SDS011;39910;47.154;27.614;2024-02-04T01:53:38;9.90;;;9.50;;
34737;SDS011;39910;47.154;27.614;2024-02-04T01:56:04;10.05;;;9.65;;
34737;SDS011;39910;47.154;27.614;2024-02-04T01:58:29;9.88;;;9.48;;
34737;SDS011;39910;47.154;27.614;2024-02-04T02:00:55;10.60;;;10.10;;
34737;SDS011;39910;47.154;27.614;2024-02-04T02:03:20;10.40;;;9.90;;
34737;SDS011;39910;47.154;27.614;2024-02-04T02:05:47;9.93;;;9.52;;
34737;SDS011;39910;47.154;27.614;2024-02-04T02:08:13;10.07;;;9.68;;
34737;SDS011;39910;47.154;27.614;2024-02-04T02:10:38;9.93;;;9.52;;
34737;SDS011;39910;47.154;27.614;2024-02-04T02:13:09;10.68;;;10.18;;
34737;SDS011;39910;47.154;27.614;2024-02-04T02:15:39;10.48;;;9.98;;
34737;SDS011;39910;47.154;27.614;2024-02-04T02:18:16;10.00;;;9.60;;
34737;SDS011;39910;47.154;27.614;2024-02-04T02:23:11;10.50;;;10.00;;
34737;SDS011;39910;47.154;27.614;2024-02-04T02:25:39;10.05;;;9.57;;
34737;SDS011;39910;47.154;27.614;2024-02-04T02:28:06;10.30;;;9.80;;
34737;SDS011;39910;47.154;27.614;2024-02-04T02:30:31;10.15;;;9.68;;
34737;SDS011;39910;47.154;27.614;2024-02-04T02:32:57;10.20;;;9.73;;
34737;SDS011;39910;47.154;27.614;2024-02-04T02:35:22;9.90;;;9.50;;
34737;SDS011;39910;47.154;27.614;2024-02-04T02:40:19;10.52;;;10.02;;
34737;SDS011;39910;47.154;27.614;2024-02-04T02:42:46;10.00;;;9.60;;
34737;SDS011;39910;47.154;27.614;2024-02-04T02:45:11;10.30;;;9.80;;
34737;SDS011;39910;47.154;27.614;2024-02-04T02:47:38;10.50;;;10.00;;
34737;SDS011;39910;47.154;27.614;2024-02-04T02:50:05;10.55;;;10.05;;
34737;SDS011;39910;47.154;27.614;2024-02-04T02:52:30;10.50;;;10.00;;
34737;SDS011;39910;47.154;27.614;2024-02-04T02:54:56;10.40;;;9.90;;
34737;SDS011;39910;47.154;27.614;2024-02-04T02:57:21;9.90;;;9.50;;
34737;SDS011;39910;47.154;27.614;2024-02-04T02:59:46;10.40;;;9.90;;
34737;SDS011;39910;47.154;27.614;2024-02-04T03:02:12;10.48;;;9.98;;
34737;SDS011;39910;47.154;27.614;2024-02-04T03:04:39;10.10;;;9.60;;
34737;SDS011;39910;47.154;27.614;2024-02-04T03:07:04;10.15;;;9.70;;
34737;SDS011;39910;47.154;27.614;2024-02-04T03:09:30;10.40;;;9.90;;
34737;SDS011;39910;47.154;27.614;2024-02-04T03:11:55;10.15;;;9.70;;
34737;SDS011;39910;47.154;27.614;2024-02-04T03:14:21;10.80;;;10.30;;
34737;SDS011;39910;47.154;27.614;2024-02-04T03:16:46;10.25;;;9.75;;
34737;SDS011;39910;47.154;27.614;2024-02-04T03:19:11;9.93;;;9.52;;
34737;SDS011;39910;47.154;27.614;2024-02-04T03:21:37;10.43;;;9.93;;
34737;SDS011;39910;47.154;27.614;2024-02-04T03:24:02;10.20;;;9.70;;
34737;SDS011;39910;47.154;27.614;2024-02-04T03:26:28;10.60;;;10.10;;
34737;SDS011;39910;47.154;27.614;2024-02-04T03:28:53;10.65;;;10.15;;
34737;SDS011;39910;47.154;27.614;2024-02-04T03:31:19;10.30;;;9.80;;
34737;SDS011;39910;47.154;27.614;2024-02-04T03:33:44;9.75;;;9.35;;
34737;SDS011;39910;47.154;27.614;2024-02-04T03:36:10;9.90;;;9.50;;
34737;SDS011;39910;47.154;27.614;2024-02-04T03:38:35;10.30;;;9.80;;
34737;SDS011;39910;47.154;27.614;2024-02-04T03:41:00;10.48;;;9.98;;
34737;SDS011;39910;47.154;27.614;2024-02-04T03:43:26;10.32;;;9.82;;
34737;SDS011;39910;47.154;27.614;2024-02-04T03:45:51;10.38;;;9.88;;
34737;SDS011;39910;47.154;27.614;2024-02-04T03:48:16;9.80;;;9.40;;
34737;SDS011;39910;47.154;27.614;2024-02-04T03:50:42;9.80;;;9.40;;
34737;SDS011;39910;47.154;27.614;2024-02-04T03:53:07;10.20;;;9.70;;
34737;SDS011;39910;47.154;27.614;2024-02-04T03:55:33;10.20;;;9.70;;
34737;SDS011;39910;47.154;27.614;2024-02-04T03:57:58;9.68;;;9.27;;
34737;SDS011;39910;47.154;27.614;2024-02-04T04:00:23;10.20;;;9.70;;
34737;SDS011;39910;47.154;27.614;2024-02-04T04:02:49;9.90;;;9.50;;
34737;SDS011;39910;47.154;27.614;2024-02-04T04:05:14;10.50;;;10.00;;
34737;SDS011;39910;47.154;27.614;2024-02-04T04:07:40;10.30;;;9.80;;
34737;SDS011;39910;47.154;27.614;2024-02-04T04:10:05;10.00;;;9.60;;
34737;SDS011;39910;47.154;27.614;2024-02-04T04:12:31;10.20;;;9.70;;
34737;SDS011;39910;47.154;27.614;2024-02-04T04:14:56;10.20;;;9.75;;
34737;SDS011;39910;47.154;27.614;2024-02-04T04:17:21;10.40;;;9.90;;
34737;SDS011;39910;47.154;27.614;2024-02-04T04:19:46;10.50;;;10.00;;
34737;SDS011;39910;47.154;27.614;2024-02-04T04:22:12;9.80;;;9.40;;
34737;SDS011;39910;47.154;27.614;2024-02-04T04:24:38;10.23;;;9.73;;
34737;SDS011;39910;47.154;27.614;2024-02-04T04:27:03;9.88;;;9.48;;
34737;SDS011;39910;47.154;27.614;2024-02-04T04:29:29;9.95;;;9.52;;
34737;SDS011;39910;47.154;27.614;2024-02-04T04:31:54;10.35;;;9.85;;
34737;SDS011;39910;47.154;27.614;2024-02-04T04:34:19;9.77;;;9.38;;
34737;SDS011;39910;47.154;27.614;2024-02-04T04:36:45;10.20;;;9.70;;
34737;SDS011;39910;47.154;27.614;2024-02-04T04:39:11;10.00;;;9.60;;
34737;SDS011;39910;47.154;27.614;2024-02-04T04:41:36;10.30;;;9.80;;
34737;SDS011;39910;47.154;27.614;2024-02-04T04:44:01;10.13;;;9.63;;
34737;SDS011;39910;47.154;27.614;2024-02-04T04:46:27;10.27;;;9.77;;
34737;SDS011;39910;47.154;27.614;2024-02-04T04:48:52;10.20;;;9.70;;
34737;SDS011;39910;47.154;27.614;2024-02-04T04:51:17;9.70;;;9.30;;
34737;SDS011;39910;47.154;27.614;2024-02-04T04:53:43;9.73;;;9.32;;
34737;SDS011;39910;47.154;27.614;2024-02-04T04:56:08;10.15;;;9.65;;
34737;SDS011;39910;47.154;27.614;2024-02-04T04:58:35;10.20;;;9.70;;
34737;SDS011;39910;47.154;27.614;2024-02-04T05:01:00;10.40;;;9.90;;
34737;SDS011;39910;47.154;27.614;2024-02-04T05:03:26;10.13;;;9.63;;
34737;SDS011;39910;47.154;27.614;2024-02-04T05:05:52;10.10;;;9.60;;
34737;SDS011;39910;47.154;27.614;2024-02-04T05:08:17;10.45;;;9.95;;
34737;SDS011;39910;47.154;27.614;2024-02-04T05:10:43;10.30;;;9.80;;
34737;SDS011;39910;47.154;27.614;2024-02-04T05:13:08;9.75;;;9.35;;
34737;SDS011;39910;47.154;27.614;2024-02-04T05:15:33;10.35;;;9.85;;
34737;SDS011;39910;47.154;27.614;2024-02-04T05:17:59;10.30;;;9.80;;
34737;SDS011;39910;47.154;27.614;2024-02-04T05:20:25;10.35;;;9.85;;
34737;SDS011;39910;47.154;27.614;2024-02-04T05:22:50;10.38;;;9.88;;
34737;SDS011;39910;47.154;27.614;2024-02-04T05:25:15;10.10;;;9.70;;
34737;SDS011;39910;47.154;27.614;2024-02-04T05:27:41;9.90;;;9.50;;
34737;SDS011;39910;47.154;27.614;2024-02-04T05:30:06;10.43;;;9.93;;
34737;SDS011;39910;47.154;27.614;2024-02-04T05:32:32;10.63;;;10.13;;
34737;SDS011;39910;47.154;27.614;2024-02-04T05:34:57;10.50;;;10.00;;
34737;SDS011;39910;47.154;27.614;2024-02-04T05:37:23;10.20;;;9.70;;
34737;SDS011;39910;47.154;27.614;2024-02-04T05:39:49;10.63;;;10.13;;
34737;SDS011;39910;47.154;27.614;2024-02-04T05:42:14;10.13;;;9.65;;
34737;SDS011;39910;47.154;27.614;2024-02-04T05:44:39;10.50;;;10.00;;
34737;SDS011;39910;47.154;27.614;2024-02-04T05:47:05;10.00;;;9.60;;
34737;SDS011;39910;47.154;27.614;2024-02-04T05:49:30;10.23;;;9.73;;
34737;SDS011;39910;47.154;27.614;2024-02-04T05:51:56;9.93;;;9.52;;
34737;SDS011;39910;47.154;27.614;2024-02-04T05:54:21;10.27;;;9.77;;
34737;SDS011;39910;47.154;27.614;2024-02-04T05:56:47;10.48;;;9.98;;
34737;SDS011;39910;47.154;27.614;2024-02-04T05:59:12;11.02;;;10.52;;
34737;SDS011;39910;47.154;27.614;2024-02-04T06:01:37;10.77;;;10.27;;
34737;SDS011;39910;47.154;27.614;2024-02-04T06:04:03;9.95;;;9.55;;
34737;SDS011;39910;47.154;27.614;2024-02-04T06:06:28;9.80;;;9.40;;
34737;SDS011;39910;47.154;27.614;2024-02-04T06:08:54;9.90;;;9.50;;
34737;SDS011;39910;47.154;27.614;2024-02-04T06:11:19;10.15;;;9.65;;
34737;SDS011;39910;47.154;27.614;2024-02-04T06:13:44;10.85;;;10.35;;
34737;SDS011;39910;47.154;27.614;2024-02-04T06:16:10;10.20;;;9.70;;
34737;SDS011;39910;47.154;27.614;2024-02-04T06:18:37;9.90;;;9.50;;
34737;SDS011;39910;47.154;27.614;2024-02-04T06:21:03;10.00;;;9.57;;
34737;SDS011;39910;47.154;27.614;2024-02-04T06:23:28;10.55;;;10.05;;
34737;SDS011;39910;47.154;27.614;2024-02-04T06:25:53;10.43;;;9.93;;
34737;SDS011;39910;47.154;27.614;2024-02-04T06:28:19;10.20;;;9.70;;
34737;SDS011;39910;47.154;27.614;2024-02-04T06:30:44;10.32;;;9.82;;
34737;SDS011;39910;47.154;27.614;2024-02-04T06:33:09;9.90;;;9.50;;
34737;SDS011;39910;47.154;27.614;2024-02-04T06:35:35;10.43;;;9.93;;
34737;SDS011;39910;47.154;27.614;2024-02-04T06:38:00;10.93;;;10.43;;
34737;SDS011;39910;47.154;27.614;2024-02-04T06:40:26;10.60;;;10.10;;
34737;SDS011;39910;47.154;27.614;2024-02-04T06:42:51;10.63;;;10.13;;
34737;SDS011;39910;47.154;27.614;2024-02-04T06:45:16;11.20;;;10.70;;
34737;SDS011;39910;47.154;27.614;2024-02-04T06:47:45;10.02;;;9.63;;
34737;SDS011;39910;47.154;27.614;2024-02-04T06:50:10;10.65;;;10.15;;
34737;SDS011;39910;47.154;27.614;2024-02-04T06:52:39;10.48;;;9.98;;
34737;SDS011;39910;47.154;27.614;2024-02-04T06:55:05;10.30;;;9.80;;
34737;SDS011;39910;47.154;27.614;2024-02-04T06:57:30;10.07;;;9.60;;
34737;SDS011;39910;47.154;27.614;2024-02-04T06:59:55;10.20;;;9.70;;
34737;SDS011;39910;47.154;27.614;2024-02-04T07:02:21;10.27;;;9.77;;
34737;SDS011;39910;47.154;27.614;2024-02-04T07:04:46;11.35;;;10.82;;
34737;SDS011;39910;47.154;27.614;2024-02-04T07:07:11;10.13;;;9.68;;
34737;SDS011;39910;47.154;27.614;2024-02-04T07:09:37;10.40;;;9.90;;
34737;SDS011;39910;47.154;27.614;2024-02-04T07:12:02;10.05;;;9.65;;
34737;SDS011;39910;47.154;27.614;2024-02-04T07:14:27;10.70;;;10.20;;
34737;SDS011;39910;47.154;27.614;2024-02-04T07:16:53;10.57;;;10.07;;
34737;SDS011;39910;47.154;27.614;2024-02-04T07:19:18;10.13;;;9.73;;
34737;SDS011;39910;47.154;27.614;2024-02-04T07:21:44;10.90;;;10.40;;
34737;SDS011;39910;47.154;27.614;2024-02-04T07:24:09;10.25;;;9.75;;
34737;SDS011;39910;47.154;27.614;2024-02-04T07:26:35;10.60;;;10.10;;
34737;SDS011;39910;47.154;27.614;2024-02-04T07:29:00;10.45;;;9.95;;
34737;SDS011;39910;47.154;27.614;2024-02-04T07:31:25;10.32;;;9.82;;
34737;SDS011;39910;47.154;27.614;2024-02-04T07:33:51;10.32;;;9.82;;
34737;SDS011;39910;47.154;27.614;2024-02-04T07:36:16;10.45;;;9.95;;
34737;SDS011;39910;47.154;27.614;2024-02-04T07:38:41;11.27;;;10.77;;
34737;SDS011;39910;47.154;27.614;2024-02-04T07:41:07;10.95;;;10.45;;
34737;SDS011;39910;47.154;27.614;2024-02-04T07:43:32;10.90;;;10.40;;
34737;SDS011;39910;47.154;27.614;2024-02-04T07:45:57;10.52;;;10.02;;
34737;SDS011;39910;47.154;27.614;2024-02-04T07:48:23;10.55;;;10.05;;
34737;SDS011;39910;47.154;27.614;2024-02-04T07:50:48;10.38;;;9.88;;
34737;SDS011;39910;47.154;27.614;2024-02-04T07:53:14;10.85;;;10.35;;
34737;SDS011;39910;47.154;27.614;2024-02-04T07:55:39;10.80;;;10.30;;
34737;SDS011;39910;47.154;27.614;2024-02-04T07:58:04;10.50;;;10.00;;
34737;SDS011;39910;47.154;27.614;2024-02-04T08:00:30;10.70;;;10.20;;
34737;SDS011;39910;47.154;27.614;2024-02-04T08:02:55;10.60;;;10.10;;
34737;SDS011;39910;47.154;27.614;2024-02-04T08:05:20;10.65;;;10.15;;
34737;SDS011;39910;47.154;27.614;2024-02-04T08:07:46;10.80;;;10.30;;
34737;SDS011;39910;47.154;27.614;2024-02-04T08:10:11;10.18;;;9.77;;
34737;SDS011;39910;47.154;27.614;2024-02-04T08:12:37;10.70;;;10.20;;
34737;SDS011;39910;47.154;27.614;2024-02-04T08:15:02;11.35;;;10.85;;
34737;SDS011;39910;47.154;27.614;2024-02-04T08:17:28;11.00;;;10.50;;
34737;SDS011;39910;47.154;27.614;2024-02-04T08:19:56;11.02;;;10.52;;
34737;SDS011;39910;47.154;27.614;2024-02-04T08:22:21;11.35;;;10.85;;
34737;SDS011;39910;47.154;27.614;2024-02-04T08:24:46;10.77;;;10.27;;
34737;SDS011;39910;47.154;27.614;2024-02-04T08:27:12;11.05;;;10.55;;
34737;SDS011;39910;47.154;27.614;2024-02-04T08:29:37;11.32;;;10.82;;
34737;SDS011;39910;47.154;27.614;2024-02-04T08:32:03;11.77;;;11.27;;
34737;SDS011;39910;47.154;27.614;2024-02-04T08:34:28;11.63;;;11.13;;
34737;SDS011;39910;47.154;27.614;2024-02-04T08:36:53;11.15;;;10.65;;
34737;SDS011;39910;47.154;27.614;2024-02-04T08:39:19;11.30;;;10.80;;
34737;SDS011;39910;47.154;27.614;2024-02-04T08:41:44;11.43;;;10.93;;
34737;SDS011;39910;47.154;27.614;2024-02-04T08:44:09;11.60;;;11.10;;
34737;SDS011;39910;47.154;27.614;2024-02-04T08:46:35;11.70;;;11.20;;
34737;SDS011;39910;47.154;27.614;2024-02-04T08:49:00;11.70;;;11.20;;
34737;SDS011;39910;47.154;27.614;2024-02-04T08:51:25;11.45;;;10.95;;
34737;SDS011;39910;47.154;27.614;2024-02-04T08:53:51;11.57;;;11.07;;
34737;SDS011;39910;47.154;27.614;2024-02-04T08:56:16;12.07;;;11.57;;
34737;SDS011;39910;47.154;27.614;2024-02-04T08:58:42;11.93;;;11.43;;
34737;SDS011;39910;47.154;27.614;2024-02-04T09:01:07;12.15;;;11.65;;
34737;SDS011;39910;47.154;27.614;2024-02-04T09:03:32;11.88;;;11.38;;
34737;SDS011;39910;47.154;27.614;2024-02-04T09:05:58;11.70;;;11.20;;
34737;SDS011;39910;47.154;27.614;2024-02-04T09:08:24;11.68;;;11.18;;
34737;SDS011;39910;47.154;27.614;2024-02-04T09:10:49;12.07;;;11.57;;
34737;SDS011;39910;47.154;27.614;2024-02-04T09:13:15;11.73;;;11.23;;
34737;SDS011;39910;47.154;27.614;2024-02-04T09:15:40;11.90;;;11.40;;
34737;SDS011;39910;47.154;27.614;2024-02-04T09:18:05;11.65;;;11.15;;
34737;SDS011;39910;47.154;27.614;2024-02-04T09:20:31;12.40;;;11.85;;
34737;SDS011;39910;47.154;27.614;2024-02-04T09:22:57;12.25;;;11.75;;
34737;SDS011;39910;47.154;27.614;2024-02-04T09:25:24;12.60;;;12.00;;
34737;SDS011;39910;47.154;27.614;2024-02-04T09:27:49;11.95;;;11.45;;
34737;SDS011;39910;47.154;27.614;2024-02-04T09:30:14;12.13;;;11.63;;
34737;SDS011;39910;47.154;27.614;2024-02-04T09:32:40;12.40;;;11.85;;
34737;SDS011;39910;47.154;27.614;2024-02-04T09:35:05;12.57;;;11.98;;
34737;SDS011;39910;47.154;27.614;2024-02-04T09:37:30;13.07;;;12.48;;
34737;SDS011;39910;47.154;27.614;2024-02-04T09:39:56;12.70;;;12.10;;
34737;SDS011;39910;47.154;27.614;2024-02-04T09:42:21;12.68;;;12.07;;
34737;SDS011;39910;47.154;27.614;2024-02-04T09:44:48;12.18;;;11.68;;
34737;SDS011;39910;47.154;27.614;2024-02-04T09:47:14;12.73;;;12.13;;
34737;SDS011;39910;47.154;27.614;2024-02-04T09:49:39;12.60;;;12.00;;
34737;SDS011;39910;47.154;27.614;2024-02-04T09:52:07;11.93;;;11.43;;
34737;SDS011;39910;47.154;27.614;2024-02-04T09:54:33;11.88;;;11.38;;
34737;SDS011;39910;47.154;27.614;2024-02-04T09:56:59;12.60;;;12.00;;
34737;SDS011;39910;47.154;27.614;2024-02-04T09:59:24;12.60;;;12.00;;
34737;SDS011;39910;47.154;27.614;2024-02-04T10:01:50;12.20;;;11.70;;
34737;SDS011;39910;47.154;27.614;2024-02-04T10:04:15;12.15;;;11.65;;
34737;SDS011;39910;47.154;27.614;2024-02-04T10:06:41;11.80;;;11.30;;
34737;SDS011;39910;47.154;27.614;2024-02-04T10:09:06;11.90;;;11.40;;
34737;SDS011;39910;47.154;27.614;2024-02-04T10:11:31;12.40;;;11.82;;
34737;SDS011;39910;47.154;27.614;2024-02-04T10:13:57;12.18;;;11.68;;
34737;SDS011;39910;47.154;27.614;2024-02-04T10:16:22;12.00;;;11.50;;
34737;SDS011;39910;47.154;27.614;2024-02-04T10:18:48;11.88;;;11.38;;
34737;SDS011;39910;47.154;27.614;2024-02-04T10:21:18;11.93;;;11.43;;
34737;SDS011;39910;47.154;27.614;2024-02-04T10:23:44;12.07;;;11.57;;
34737;SDS011;39910;47.154;27.614;2024-02-04T10:26:10;12.32;;;11.75;;
34737;SDS011;39910;47.154;27.614;2024-02-04T10:28:36;12.07;;;11.57;;
34737;SDS011;39910;47.154;27.614;2024-02-04T10:31:02;12.07;;;11.57;;
34737;SDS011;39910;47.154;27.614;2024-02-04T10:33:29;11.57;;;11.07;;
34737;SDS011;39910;47.154;27.614;2024-02-04T10:35:55;12.05;;;11.55;;
34737;SDS011;39910;47.154;27.614;2024-02-04T10:38:20;12.00;;;11.50;;
34737;SDS011;39910;47.154;27.614;2024-02-04T10:40:45;12.10;;;11.60;;
34737;SDS011;39910;47.154;27.614;2024-02-04T10:43:11;11.77;;;11.27;;
34737;SDS011;39910;47.154;27.614;2024-02-04T10:45:38;12.13;;;11.63;;
34737;SDS011;39910;47.154;27.614;2024-02-04T10:48:04;12.27;;;11.73;;
34737;SDS011;39910;47.154;27.614;2024-02-04T10:50:32;12.23;;;11.68;;
34737;SDS011;39910;47.154;27.614;2024-02-04T10:53:00;12.40;;;11.80;;
34737;SDS011;39910;47.154;27.614;2024-02-04T10:55:29;12.50;;;11.90;;
34737;SDS011;39910;47.154;27.614;2024-02-04T10:57:55;12.00;;;11.50;;
34737;SDS011;39910;47.154;27.614;2024-02-04T11:00:21;12.18;;;11.63;;
34737;SDS011;39910;47.154;27.614;2024-02-04T11:02:47;11.73;;;11.23;;
34737;SDS011;39910;47.154;27.614;2024-02-04T11:05:14;11.70;;;11.20;;
34737;SDS011;39910;47.154;27.614;2024-02-04T11:07:42;11.80;;;11.30;;
34737;SDS011;39910;47.154;27.614;2024-02-04T11:10:08;11.95;;;11.45;;
34737;SDS011;39910;47.154;27.614;2024-02-04T11:12:34;11.90;;;11.40;;
34737;SDS011;39910;47.154;27.614;2024-02-04T11:15:01;12.15;;;11.63;;
34737;SDS011;39910;47.154;27.614;2024-02-04T11:25:05;13.45;;;12.85;;
34737;SDS011;39910;47.154;27.614;2024-02-04T11:27:35;13.00;;;12.40;;
34737;SDS011;39910;47.154;27.614;2024-02-04T11:30:01;12.85;;;12.25;;
34737;SDS011;39910;47.154;27.614;2024-02-04T11:32:26;11.98;;;11.48;;
34737;SDS011;39910;47.154;27.614;2024-02-04T11:34:53;13.02;;;12.43;;
34737;SDS011;39910;47.154;27.614;2024-02-04T11:37:19;13.13;;;12.52;;
34737;SDS011;39910;47.154;27.614;2024-02-04T11:39:48;12.50;;;11.90;;
34737;SDS011;39910;47.154;27.614;2024-02-04T11:42:15;12.02;;;11.50;;
34737;SDS011;39910;47.154;27.614;2024-02-04T11:44:41;11.70;;;11.20;;
34737;SDS011;39910;47.154;27.614;2024-02-04T11:47:06;11.40;;;10.90;;
34737;SDS011;39910;47.154;27.614;2024-02-04T11:49:31;11.60;;;11.10;;
34737;SDS011;39910;47.154;27.614;2024-02-04T11:51:57;11.52;;;11.02;;
34737;SDS011;39910;47.154;27.614;2024-02-04T11:54:22;12.10;;;11.50;;
34737;SDS011;39910;47.154;27.614;2024-02-04T11:56:48;11.65;;;11.15;;
34737;SDS011;39910;47.154;27.614;2024-02-04T11:59:18;12.75;;;12.15;;
34737;SDS011;39910;47.154;27.614;2024-02-04T12:01:44;12.00;;;11.40;;
34737;SDS011;39910;47.154;27.614;2024-02-04T12:04:10;11.50;;;11.00;;
34737;SDS011;39910;47.154;27.614;2024-02-04T12:06:36;11.07;;;10.57;;
34737;SDS011;39910;47.154;27.614;2024-02-04T12:09:01;11.27;;;10.77;;
34737;SDS011;39910;47.154;27.614;2024-02-04T12:11:27;12.35;;;11.75;;
34737;SDS011;39910;47.154;27.614;2024-02-04T12:13:53;11.27;;;10.77;;
34737;SDS011;39910;47.154;27.614;2024-02-04T12:16:20;11.50;;;11.00;;
34737;SDS011;39910;47.154;27.614;2024-02-04T12:18:50;11.75;;;11.23;;
34737;SDS011;39910;47.154;27.614;2024-02-04T12:21:15;11.50;;;11.00;;
34737;SDS011;39910;47.154;27.614;2024-02-04T12:23:40;11.18;;;10.68;;
34737;SDS011;39910;47.154;27.614;2024-02-04T12:26:06;11.73;;;11.23;;
34737;SDS011;39910;47.154;27.614;2024-02-04T12:28:31;11.88;;;11.38;;
34737;SDS011;39910;47.154;27.614;2024-02-04T12:30:57;11.32;;;10.82;;
34737;SDS011;39910;47.154;27.614;2024-02-04T12:33:25;11.35;;;10.85;;
34737;SDS011;39910;47.154;27.614;2024-02-04T12:35:50;11.57;;;11.07;;
34737;SDS011;39910;47.154;27.614;2024-02-04T12:38:16;12.15;;;11.55;;
34737;SDS011;39910;47.154;27.614;2024-02-04T12:40:45;11.55;;;11.05;;
34737;SDS011;39910;47.154;27.614;2024-02-04T12:43:10;11.55;;;11.05;;
34737;SDS011;39910;47.154;27.614;2024-02-04T12:45:36;11.60;;;11.10;;
34737;SDS011;39910;47.154;27.614;2024-02-04T12:48:01;11.38;;;10.88;;
34737;SDS011;39910;47.154;27.614;2024-02-04T12:50:28;12.52;;;11.93;;
34737;SDS011;39910;47.154;27.614;2024-02-04T12:53:06;11.90;;;11.40;;
34737;SDS011;39910;47.154;27.614;2024-02-04T12:55:32;12.05;;;11.50;;
34737;SDS011;39910;47.154;27.614;2024-02-04T12:58:05;11.40;;;10.90;;
34737;SDS011;39910;47.154;27.614;2024-02-04T13:00:31;11.85;;;11.35;;
34737;SDS011;39910;47.154;27.614;2024-02-04T13:02:57;11.50;;;11.00;;
34737;SDS011;39910;47.154;27.614;2024-02-04T13:05:23;11.60;;;11.10;;
34737;SDS011;39910;47.154;27.614;2024-02-04T13:10:20;11.45;;;10.95;;
34737;SDS011;39910;47.154;27.614;2024-02-04T13:12:46;11.38;;;10.88;;
34737;SDS011;39910;47.154;27.614;2024-02-04T13:15:12;11.68;;;11.18;;
34737;SDS011;39910;47.154;27.614;2024-02-04T13:17:37;11.32;;;10.82;;
34737;SDS011;39910;47.154;27.614;2024-02-04T13:20:02;11.63;;;11.13;;
34737;SDS011;39910;47.154;27.614;2024-02-04T13:22:29;11.57;;;11.07;;
34737;SDS011;39910;47.154;27.614;2024-02-04T13:24:54;11.48;;;10.98;;
34737;SDS011;39910;47.154;27.614;2024-02-04T13:27:19;12.63;;;12.02;;
34737;SDS011;39910;47.154;27.614;2024-02-04T13:29:45;11.80;;;11.30;;
34737;SDS011;39910;47.154;27.614;2024-02-04T13:32:11;11.48;;;10.98;;
34737;SDS011;39910;47.154;27.614;2024-02-04T13:34:36;11.80;;;11.30;;
34737;SDS011;39910;47.154;27.614;2024-02-04T13:37:01;11.73;;;11.23;;
34737;SDS011;39910;47.154;27.614;2024-02-04T13:39:26;12.52;;;11.93;;
34737;SDS011;39910;47.154;27.614;2024-02-04T13:41:53;11.90;;;11.40;;
34737;SDS011;39910;47.154;27.614;2024-02-04T13:44:18;11.40;;;10.90;;
34737;SDS011;39910;47.154;27.614;2024-02-04T13:46:43;11.80;;;11.30;;
34737;SDS011;39910;47.154;27.614;2024-02-04T13:49:09;11.30;;;10.80;;
34737;SDS011;39910;47.154;27.614;2024-02-04T13:51:35;11.63;;;11.13;;
34737;SDS011;39910;47.154;27.614;2024-02-04T13:54:01;11.40;;;10.90;;
34737;SDS011;39910;47.154;27.614;2024-02-04T13:56:26;11.30;;;10.80;;
34737;SDS011;39910;47.154;27.614;2024-02-04T13:58:52;11.65;;;11.15;;
34737;SDS011;39910;47.154;27.614;2024-02-04T14:01:17;11.73;;;11.23;;
34737;SDS011;39910;47.154;27.614;2024-02-04T14:03:43;11.80;;;11.30;;
34737;SDS011;39910;47.154;27.614;2024-02-04T14:06:09;11.52;;;11.02;;
34737;SDS011;39910;47.154;27.614;2024-02-04T14:08:34;11.32;;;10.82;;
34737;SDS011;39910;47.154;27.614;2024-02-04T14:11:00;11.65;;;11.15;;
34737;SDS011;39910;47.154;27.614;2024-02-04T14:13:25;11.27;;;10.77;;
34737;SDS011;39910;47.154;27.614;2024-02-04T14:15:50;11.43;;;10.93;;
34737;SDS011;39910;47.154;27.614;2024-02-04T14:18:17;11.45;;;10.95;;
34737;SDS011;39910;47.154;27.614;2024-02-04T14:20:42;11.88;;;11.38;;
34737;SDS011;39910;47.154;27.614;2024-02-04T14:23:08;11.10;;;10.60;;